Time;durP1;ratioP1;P1;durP2;ratioP2;P2;SDS_P1;SDS_P2;PMS_P1;PMS_P2;Temp;Humidity;BMP_temperature;BMP_pressure;BME280_temperature;BME280_humidity;BME280_pressure;Samples;Min_cycle;Max_cycle;Signal;HPM_P1;HPM_P2
2021/12/11 00:00:15;;;;;;;9.50;9.20;;;1.70;99.90;;;;;;5140705;27;20304;-80
2021/12/11 00:02:45;;;;;;;9.57;9.27;;;1.80;99.90;;;;;;5140639;27;20303;-79
2021/12/11 00:05:17;;;;;;;9.50;9.20;;;1.80;99.90;;;;;;5139455;27;20228;-80
2021/12/11 00:07:45;;;;;;;9.50;9.20;;;1.80;99.90;;;;;;5141558;27;20232;-79
2021/12/11 00:10:22;;;;;;;9.40;9.10;;;1.80;99.90;;;;;;5142077;27;20277;-80
2021/12/11 00:12:55;;;;;;;9.70;9.40;;;1.80;99.90;;;;;;5137785;27;20223;-81
2021/12/11 00:15:27;;;;;;;9.73;9.43;;;1.80;99.90;;;;;;5139447;27;20224;-79
2021/12/11 00:17:59;;;;;;;9.70;9.40;;;1.80;99.90;;;;;;5140481;27;20228;-80
2021/12/11 00:20:32;;;;;;;9.70;9.40;;;1.80;99.90;;;;;;5146763;27;20254;-80
2021/12/11 00:23:01;;;;;;;9.80;9.50;;;1.80;99.90;;;;;;5158877;27;20247;-78
2021/12/11 00:25:30;;;;;;;9.70;9.40;;;1.80;99.90;;;;;;5161038;27;20242;-77
2021/12/11 00:28:06;;;;;;;9.77;9.47;;;1.90;99.90;;;;;;5160477;27;20224;-75
2021/12/11 00:30:37;;;;;;;9.83;9.53;;;1.90;99.90;;;;;;5161304;27;20216;-75
2021/12/11 00:33:12;;;;;;;9.80;9.50;;;1.90;99.90;;;;;;5140308;27;20418;-77
2021/12/11 00:35:41;;;;;;;9.77;9.47;;;1.80;99.90;;;;;;5140872;27;20242;-79
2021/12/11 00:38:13;;;;;;;9.80;9.50;;;1.80;99.90;;;;;;5136828;27;20255;-80
2021/12/11 00:40:45;;;;;;;10.00;9.70;;;1.90;99.90;;;;;;5131789;28;20251;-80
2021/12/11 00:43:20;;;;;;;9.90;9.60;;;1.90;99.90;;;;;;5130467;28;20240;-79
2021/12/11 00:45:51;;;;;;;9.70;9.40;;;1.80;99.90;;;;;;5126690;28;20232;-80
2021/12/11 00:48:23;;;;;;;9.90;9.60;;;1.80;99.90;;;;;;5126001;28;20291;-80
2021/12/11 00:50:54;;;;;;;9.77;9.47;;;1.90;99.90;;;;;;5129707;28;20255;-79
2021/12/11 00:53:26;;;;;;;9.87;9.57;;;2.00;99.90;;;;;;5123370;28;20217;-80
2021/12/11 00:55:59;;;;;;;9.80;9.50;;;2.00;99.90;;;;;;5123411;28;20225;-80
2021/12/11 00:58:31;;;;;;;10.20;9.90;;;2.00;99.90;;;;;;5123289;28;20231;-80
2021/12/11 01:01:04;;;;;;;9.77;9.47;;;2.10;99.90;;;;;;5122825;28;20235;-79
2021/12/11 01:03:37;;;;;;;9.80;9.50;;;2.10;99.90;;;;;;5137260;27;21053;-80
2021/12/11 01:06:11;;;;;;;9.97;9.67;;;2.10;99.90;;;;;;5140852;27;20238;-80
2021/12/11 01:08:47;;;;;;;9.67;9.37;;;2.10;99.90;;;;;;5140076;27;20229;-80
2021/12/11 01:11:23;;;;;;;9.80;9.50;;;2.10;99.90;;;;;;5134013;27;20232;-80
2021/12/11 01:14:04;;;;;;;9.63;9.33;;;2.10;99.90;;;;;;5145714;27;20271;-80
2021/12/11 01:16:32;;;;;;;10.00;9.70;;;2.10;99.90;;;;;;5141825;27;20406;-80
2021/12/11 01:19:03;;;;;;;9.80;9.50;;;2.20;99.90;;;;;;5137906;27;20234;-80
2021/12/11 01:21:44;;;;;;;9.60;9.30;;;2.10;99.90;;;;;;5137579;27;20235;-80
2021/12/11 01:24:28;;;;;;;9.87;9.57;;;2.10;99.90;;;;;;5137012;27;20223;-80
2021/12/11 01:27:00;;;;;;;9.60;9.30;;;2.10;99.90;;;;;;5137162;27;20232;-80
2021/12/11 01:29:30;;;;;;;9.77;9.47;;;2.10;99.90;;;;;;5138967;27;20240;-79
2021/12/11 01:31:59;;;;;;;9.70;9.40;;;2.10;99.90;;;;;;5139417;27;20227;-80
2021/12/11 01:34:29;;;;;;;9.80;9.50;;;2.10;99.90;;;;;;5138177;27;20216;-79
2021/12/11 01:36:58;;;;;;;9.63;9.33;;;2.10;99.90;;;;;;5138290;27;20460;-81
2021/12/11 01:39:30;;;;;;;9.90;9.60;;;2.10;99.90;;;;;;5148529;27;20414;-77
2021/12/11 01:42:01;;;;;;;9.57;9.27;;;2.10;99.90;;;;;;5155212;27;20237;-79
2021/12/11 01:44:35;;;;;;;10.00;9.70;;;2.10;99.90;;;;;;5153827;27;20224;-79
2021/12/11 01:47:09;;;;;;;9.80;9.50;;;2.10;99.90;;;;;;5141085;27;20232;-79
2021/12/11 01:49:38;;;;;;;9.57;9.27;;;2.10;99.90;;;;;;5138577;27;20259;-79
2021/12/11 01:52:12;;;;;;;9.80;9.50;;;2.10;99.90;;;;;;5138179;27;20296;-80
2021/12/11 01:54:45;;;;;;;9.70;9.40;;;2.10;99.90;;;;;;5137578;27;20284;-79
2021/12/11 01:57:20;;;;;;;9.63;9.33;;;2.10;99.90;;;;;;5137849;27;20289;-79
2021/12/11 01:59:53;;;;;;;9.87;9.57;;;2.10;99.90;;;;;;5151795;27;20235;-80
2021/12/11 02:02:26;;;;;;;10.00;9.70;;;2.10;99.90;;;;;;5148025;27;20329;-80
2021/12/11 02:04:55;;;;;;;9.80;9.50;;;2.00;99.90;;;;;;5141345;27;20281;-80
2021/12/11 02:07:29;;;;;;;10.00;9.70;;;2.10;99.90;;;;;;5141646;27;20234;-80
2021/12/11 02:09:59;;;;;;;10.00;9.70;;;2.00;99.90;;;;;;5141334;27;20343;-80
2021/12/11 02:12:36;;;;;;;9.97;9.67;;;2.00;99.90;;;;;;5140886;27;20323;-80
2021/12/11 02:15:07;;;;;;;10.07;9.77;;;2.00;99.90;;;;;;5140534;27;20238;-80
2021/12/11 02:17:40;;;;;;;9.90;9.60;;;2.00;99.90;;;;;;5140645;27;20243;-80
2021/12/11 02:20:11;;;;;;;9.73;9.43;;;2.00;99.90;;;;;;5140886;27;20236;-80
2021/12/11 02:22:46;;;;;;;9.90;9.60;;;2.00;99.90;;;;;;5141273;27;20235;-80
2021/12/11 02:25:20;;;;;;;9.80;9.50;;;2.10;99.90;;;;;;5142478;27;20292;-80
2021/12/11 02:27:54;;;;;;;9.77;9.47;;;2.10;99.90;;;;;;5142403;27;20247;-80
2021/12/11 02:30:27;;;;;;;9.80;9.50;;;2.10;99.90;;;;;;5148990;27;20224;-80
2021/12/11 02:33:06;;;;;;;9.73;9.43;;;2.00;99.90;;;;;;5150120;27;20212;-80
2021/12/11 02:35:39;;;;;;;9.50;9.20;;;2.00;99.90;;;;;;5142171;27;20289;-80
2021/12/11 02:38:19;;;;;;;9.77;9.47;;;2.10;99.90;;;;;;5139647;27;20263;-80
2021/12/11 02:40:52;;;;;;;9.80;9.50;;;2.10;99.90;;;;;;5139642;27;20652;-80
2021/12/11 02:43:25;;;;;;;9.83;9.53;;;2.10;99.90;;;;;;5140667;27;20228;-80
2021/12/11 02:46:05;;;;;;;9.90;9.60;;;2.10;99.90;;;;;;5155084;27;20216;-80
2021/12/11 02:48:38;;;;;;;9.77;9.47;;;2.10;99.90;;;;;;5158338;27;20238;-80
2021/12/11 02:51:13;;;;;;;9.77;9.47;;;2.10;99.90;;;;;;5158701;27;20254;-79
2021/12/11 02:53:47;;;;;;;9.97;9.67;;;2.10;99.90;;;;;;5150903;27;20239;-80
2021/12/11 02:56:20;;;;;;;9.60;9.30;;;2.00;99.90;;;;;;5141094;27;20236;-81
2021/12/11 02:58:52;;;;;;;9.80;9.50;;;2.10;99.90;;;;;;5142537;27;20220;-80
2021/12/11 03:01:28;;;;;;;9.70;9.40;;;2.00;99.90;;;;;;5141967;27;20224;-80
2021/12/11 03:04:14;;;;;;;9.90;9.60;;;2.10;99.90;;;;;;5143513;27;20236;-80
2021/12/11 03:06:45;;;;;;;9.87;9.57;;;2.10;99.90;;;;;;5157471;27;20227;-80
2021/12/11 03:09:21;;;;;;;9.60;9.30;;;2.10;99.90;;;;;;5156268;27;20226;-80
2021/12/11 03:11:49;;;;;;;9.80;9.50;;;2.10;99.90;;;;;;5142881;27;20232;-79
2021/12/11 03:14:18;;;;;;;9.60;9.30;;;2.10;99.90;;;;;;5142036;27;20270;-79
2021/12/11 03:16:50;;;;;;;9.47;9.17;;;2.10;99.90;;;;;;5141137;27;20224;-79
2021/12/11 03:19:22;;;;;;;9.80;9.50;;;2.10;99.90;;;;;;5141633;27;20228;-79
2021/12/11 03:21:51;;;;;;;9.73;9.43;;;2.10;99.90;;;;;;5141627;27;20247;-80
2021/12/11 03:24:21;;;;;;;9.47;9.17;;;2.10;99.90;;;;;;5146339;27;20232;-77
2021/12/11 03:26:52;;;;;;;9.77;9.47;;;2.10;99.90;;;;;;5138639;27;20236;-79
2021/12/11 03:29:21;;;;;;;9.83;9.53;;;2.10;99.90;;;;;;5138865;27;20235;-79
2021/12/11 03:31:49;;;;;;;9.80;9.50;;;2.20;99.90;;;;;;5139084;27;20228;-79
2021/12/11 03:34:21;;;;;;;9.77;9.47;;;2.20;99.90;;;;;;5138616;27;20285;-79
2021/12/11 03:36:51;;;;;;;9.67;9.37;;;2.10;99.90;;;;;;5139123;27;20228;-78
2021/12/11 03:39:25;;;;;;;9.70;9.40;;;2.20;99.90;;;;;;5139192;27;20270;-78
2021/12/11 03:41:56;;;;;;;9.87;9.57;;;2.20;99.90;;;;;;5139573;27;20275;-78
2021/12/11 03:44:31;;;;;;;9.70;9.40;;;2.20;99.90;;;;;;5138826;27;20261;-78
2021/12/11 03:47:02;;;;;;;9.90;9.60;;;2.10;99.90;;;;;;5139723;27;20228;-79
2021/12/11 03:49:29;;;;;;;9.63;9.33;;;2.20;99.90;;;;;;5141490;27;20242;-79
2021/12/11 03:51:57;;;;;;;9.70;9.40;;;2.10;99.90;;;;;;5139847;27;20322;-79
2021/12/11 03:54:33;;;;;;;9.70;9.40;;;2.10;99.90;;;;;;5139627;27;20301;-79
2021/12/11 03:57:01;;;;;;;9.67;9.37;;;2.00;99.90;;;;;;5148175;27;20223;-78
2021/12/11 03:59:31;;;;;;;9.83;9.53;;;2.00;99.90;;;;;;5151729;27;20293;-80
2021/12/11 04:02:04;;;;;;;9.70;9.40;;;2.00;99.90;;;;;;5138335;27;20224;-80
2021/12/11 04:04:37;;;;;;;10.00;9.70;;;1.90;99.90;;;;;;5137575;27;20326;-79
2021/12/11 04:07:09;;;;;;;9.90;9.60;;;1.90;99.90;;;;;;5138966;27;20339;-80
2021/12/11 04:09:39;;;;;;;9.70;9.40;;;1.90;99.90;;;;;;5140354;27;20216;-80
2021/12/11 04:12:09;;;;;;;9.70;9.40;;;1.90;99.90;;;;;;5145248;27;20232;-79
2021/12/11 04:14:43;;;;;;;10.00;9.70;;;1.90;99.90;;;;;;5155292;27;20224;-79
2021/12/11 04:17:18;;;;;;;10.03;9.73;;;1.90;99.90;;;;;;5154914;27;20268;-79
2021/12/11 04:19:47;;;;;;;9.70;9.40;;;1.90;99.90;;;;;;5159021;27;20223;-78
2021/12/11 04:22:15;;;;;;;9.90;9.60;;;1.80;99.90;;;;;;5142170;27;20236;-80
2021/12/11 04:24:47;;;;;;;9.80;9.50;;;1.70;99.90;;;;;;5140949;27;20254;-80
2021/12/11 04:27:20;;;;;;;10.10;9.80;;;1.80;99.90;;;;;;5139784;27;20228;-80
2021/12/11 04:29:50;;;;;;;9.87;9.57;;;1.80;99.90;;;;;;5140430;27;20224;-80
2021/12/11 04:32:19;;;;;;;9.90;9.60;;;1.80;99.90;;;;;;5140286;27;20258;-79
2021/12/11 04:34:48;;;;;;;9.70;9.40;;;1.90;99.90;;;;;;5139034;27;20227;-79
2021/12/11 04:37:22;;;;;;;9.70;9.40;;;1.90;99.90;;;;;;5139472;27;20262;-80
2021/12/11 04:40:00;;;;;;;9.87;9.57;;;1.80;99.90;;;;;;5151336;27;20322;-80
2021/12/11 04:42:41;;;;;;;9.87;9.57;;;1.80;99.90;;;;;;5142274;27;20254;-80
2021/12/11 04:45:13;;;;;;;9.83;9.53;;;1.80;99.90;;;;;;5153674;27;20283;-79
2021/12/11 04:47:49;;;;;;;9.70;9.40;;;1.80;99.90;;;;;;5161542;27;20236;-78
2021/12/11 04:50:27;;;;;;;9.90;9.60;;;1.80;99.90;;;;;;5161285;27;20200;-78
2021/12/11 04:52:56;;;;;;;10.00;9.70;;;1.80;99.90;;;;;;5161477;27;20234;-77
2021/12/11 04:55:49;;;;;;;9.80;9.50;;;1.80;99.90;;;;;;5161309;27;20231;-77
2021/12/11 05:01:12;;;;;;;10.10;9.80;;;1.90;99.90;;;;;;5156161;27;20216;-80
2021/12/11 05:04:06;;;;;;;9.80;9.50;;;1.90;99.90;;;;;;5156103;27;20220;-80
2021/12/11 05:06:45;;;;;;;10.00;9.70;;;1.90;99.90;;;;;;5155300;27;20216;-80
2021/12/11 05:09:26;;;;;;;9.73;9.43;;;2.00;99.90;;;;;;5151766;27;20252;-79
2021/12/11 05:12:09;;;;;;;9.77;9.47;;;1.90;99.90;;;;;;5157455;27;20214;-79
2021/12/11 05:14:39;;;;;;;9.77;9.47;;;1.90;99.90;;;;;;5153208;27;20235;-80
2021/12/11 05:17:09;;;;;;;9.80;9.50;;;1.80;99.90;;;;;;5143938;27;20242;-81
2021/12/11 05:19:37;;;;;;;9.80;9.50;;;1.90;99.90;;;;;;5141118;27;20243;-81
2021/12/11 05:22:06;;;;;;;9.53;9.23;;;1.90;99.90;;;;;;5141513;27;20225;-80
2021/12/11 05:24:36;;;;;;;9.90;9.60;;;1.90;99.90;;;;;;5140634;27;20317;-81
2021/12/11 05:27:08;;;;;;;9.87;9.57;;;1.90;99.90;;;;;;5141611;27;20271;-81
2021/12/11 05:29:37;;;;;;;9.90;9.60;;;1.80;99.90;;;;;;5148824;22;20244;-81
2021/12/11 05:32:09;;;;;;;9.70;9.40;;;1.80;99.90;;;;;;5144506;27;20242;-81
2021/12/11 05:34:37;;;;;;;9.90;9.60;;;1.80;99.90;;;;;;5148158;27;20253;-80
2021/12/11 05:37:06;;;;;;;9.93;9.63;;;1.80;99.90;;;;;;5152108;27;20216;-80
2021/12/11 05:39:37;;;;;;;10.03;9.73;;;1.80;99.90;;;;;;5160616;27;20239;-81
2021/12/11 05:42:44;;;;;;;9.57;9.27;;;1.80;99.90;;;;;;5168852;27;20227;-80
2021/12/11 05:45:12;;;;;;;9.57;9.27;;;1.90;99.90;;;;;;5169872;27;20300;-80
2021/12/11 05:47:40;;;;;;;9.90;9.60;;;1.90;99.90;;;;;;5162326;27;20378;-80
2021/12/11 05:50:13;;;;;;;10.10;9.80;;;1.90;99.90;;;;;;5173189;27;20241;-80
2021/12/11 05:52:41;;;;;;;9.70;9.40;;;1.90;99.90;;;;;;5180410;27;20225;-80
2021/12/11 05:55:13;;;;;;;9.50;9.20;;;1.90;99.90;;;;;;5184783;27;20223;-81
2021/12/11 05:57:49;;;;;;;9.80;9.50;;;1.90;99.90;;;;;;5184668;27;20230;-80
2021/12/11 06:00:20;;;;;;;9.80;9.50;;;1.90;99.90;;;;;;5176299;27;20219;-80
2021/12/11 06:02:48;;;;;;;9.87;9.57;;;1.80;99.90;;;;;;5173088;27;20224;-80
2021/12/11 06:05:16;;;;;;;9.97;9.67;;;1.80;99.90;;;;;;5160221;27;20280;-80
2021/12/11 06:07:43;;;;;;;9.97;9.67;;;1.90;99.90;;;;;;5167848;27;20235;-78
2021/12/11 06:10:15;;;;;;;10.00;9.70;;;1.80;99.90;;;;;;5166847;27;20227;-80
2021/12/11 06:12:52;;;;;;;9.80;9.50;;;1.80;99.90;;;;;;5167009;27;20223;-80
2021/12/11 06:15:22;;;;;;;9.90;9.60;;;1.80;99.90;;;;;;5167150;27;20234;-80
2021/12/11 06:17:55;;;;;;;9.73;9.43;;;1.70;99.90;;;;;;5167597;27;20236;-80
2021/12/11 06:20:31;;;;;;;10.17;9.87;;;1.70;99.90;;;;;;5166486;27;20223;-80
2021/12/11 06:23:00;;;;;;;10.00;9.70;;;1.70;99.90;;;;;;5166453;27;20210;-80
2021/12/11 06:25:32;;;;;;;10.03;9.73;;;1.70;99.90;;;;;;5165893;27;20227;-80
2021/12/11 06:28:06;;;;;;;10.10;9.80;;;1.70;99.90;;;;;;5167010;27;20265;-80
2021/12/11 06:30:38;;;;;;;9.87;9.57;;;1.80;99.90;;;;;;5171783;27;20241;-79
2021/12/11 06:33:07;;;;;;;9.90;9.60;;;1.80;99.90;;;;;;5169196;27;20276;-79
2021/12/11 06:35:44;;;;;;;9.80;9.50;;;1.80;99.90;;;;;;5167621;27;20245;-80
2021/12/11 06:38:24;;;;;;;9.70;9.40;;;1.90;99.90;;;;;;5166876;27;20268;-80
2021/12/11 06:40:54;;;;;;;9.50;9.20;;;1.80;99.90;;;;;;5158614;27;20285;-80
2021/12/11 06:43:32;;;;;;;9.80;9.50;;;1.80;99.90;;;;;;5151223;27;20393;-80
2021/12/11 06:46:00;;;;;;;9.87;9.57;;;1.90;99.90;;;;;;5144602;27;20285;-80
2021/12/11 06:48:30;;;;;;;9.90;9.60;;;1.80;99.90;;;;;;5145141;27;20236;-80
2021/12/11 06:50:59;;;;;;;9.93;9.63;;;1.80;99.90;;;;;;5144733;27;20315;-80
2021/12/11 06:53:40;;;;;;;9.80;9.50;;;1.80;99.90;;;;;;5145086;27;20278;-80
2021/12/11 06:56:18;;;;;;;9.77;9.47;;;1.70;99.90;;;;;;5144767;27;20231;-80
2021/12/11 06:58:48;;;;;;;10.37;10.07;;;1.70;99.90;;;;;;5145085;27;20240;-80
2021/12/11 07:01:27;;;;;;;9.93;9.63;;;1.80;99.90;;;;;;5145366;27;20731;-79
2021/12/11 07:03:56;;;;;;;10.03;9.73;;;1.70;99.90;;;;;;5144904;27;20227;-80
2021/12/11 07:06:25;;;;;;;9.90;9.60;;;1.70;99.90;;;;;;5144687;27;20231;-80
2021/12/11 07:08:53;;;;;;;10.17;9.87;;;1.70;99.90;;;;;;5146321;27;20765;-80
2021/12/11 07:11:23;;;;;;;10.07;9.77;;;1.70;99.90;;;;;;5159787;27;20204;-80
2021/12/11 07:13:53;;;;;;;9.90;9.60;;;1.80;99.90;;;;;;5163639;27;20212;-81
2021/12/11 07:16:21;;;;;;;10.00;9.70;;;1.80;99.90;;;;;;5163002;27;20238;-79
2021/12/11 07:18:50;;;;;;;10.27;9.97;;;1.90;99.90;;;;;;5151755;27;20240;-80
2021/12/11 07:21:19;;;;;;;10.07;9.77;;;1.90;99.90;;;;;;5148002;27;20255;-80
2021/12/11 07:23:49;;;;;;;10.10;9.80;;;1.90;99.90;;;;;;5147657;27;20228;-80
2021/12/11 07:26:23;;;;;;;10.00;9.70;;;1.90;99.90;;;;;;5146814;27;20246;-80
2021/12/11 07:28:57;;;;;;;9.93;9.63;;;1.80;99.90;;;;;;5146520;27;20230;-80
2021/12/11 07:31:26;;;;;;;10.00;9.70;;;1.70;99.90;;;;;;5146495;27;20301;-80
2021/12/11 07:33:55;;;;;;;9.97;9.67;;;1.70;99.90;;;;;;5146038;27;20256;-80
2021/12/11 07:36:26;;;;;;;9.90;9.60;;;1.70;99.90;;;;;;5146013;27;20232;-80
2021/12/11 07:38:54;;;;;;;10.07;9.77;;;1.70;99.90;;;;;;5145130;27;20264;-80
2021/12/11 07:41:23;;;;;;;9.93;9.63;;;1.60;99.90;;;;;;5145552;27;20278;-80
2021/12/11 07:43:54;;;;;;;10.30;10.00;;;1.60;99.90;;;;;;5145869;27;20674;-80
2021/12/11 07:46:32;;;;;;;10.10;9.80;;;1.60;99.90;;;;;;5144725;27;20289;-80
2021/12/11 07:49:02;;;;;;;10.03;9.73;;;1.60;99.90;;;;;;5152356;27;20240;-80
2021/12/11 07:51:32;;;;;;;10.20;9.90;;;1.60;99.90;;;;;;5161145;27;20238;-80
2021/12/11 07:54:00;;;;;;;9.97;9.67;;;1.60;99.90;;;;;;5154025;27;20242;-80
2021/12/11 07:56:29;;;;;;;9.93;9.63;;;1.70;99.90;;;;;;5151878;27;20231;-79
2021/12/11 07:59:07;;;;;;;9.97;9.67;;;1.60;99.90;;;;;;5146286;27;20251;-80
2021/12/11 08:01:39;;;;;;;10.10;9.80;;;1.60;99.90;;;;;;5145969;27;20224;-80
2021/12/11 08:04:07;;;;;;;10.20;9.90;;;1.60;99.90;;;;;;5143399;27;20242;-80
2021/12/11 08:06:36;;;;;;;10.20;9.90;;;1.60;99.90;;;;;;5143596;27;20231;-80
2021/12/11 08:09:07;;;;;;;10.20;9.90;;;1.60;99.90;;;;;;5142802;27;20228;-80
2021/12/11 08:11:36;;;;;;;9.97;9.67;;;1.60;99.90;;;;;;5143628;27;20289;-80
2021/12/11 08:14:07;;;;;;;9.80;9.50;;;1.60;99.90;;;;;;5144273;27;20217;-81
2021/12/11 08:16:45;;;;;;;10.00;9.70;;;1.60;99.90;;;;;;5145002;27;20235;-80
2021/12/11 08:19:16;;;;;;;10.20;9.90;;;1.60;99.90;;;;;;5143558;27;20238;-80
2021/12/11 08:21:45;;;;;;;10.10;9.80;;;1.60;99.90;;;;;;5144556;27;20231;-80
2021/12/11 08:24:13;;;;;;;10.20;9.90;;;1.60;99.90;;;;;;5145464;27;20227;-80
2021/12/11 08:26:41;;;;;;;10.23;9.93;;;1.60;99.90;;;;;;5153351;27;20228;-80
2021/12/11 08:29:19;;;;;;;10.30;10.00;;;1.60;99.90;;;;;;5150305;27;20431;-82
2021/12/11 08:31:58;;;;;;;10.30;10.00;;;1.60;99.90;;;;;;5143676;27;20281;-82
2021/12/11 08:34:27;;;;;;;10.17;9.87;;;1.70;99.90;;;;;;5144401;27;20212;-80
2021/12/11 08:36:56;;;;;;;10.20;9.90;;;2.00;99.90;;;;;;5144236;27;20224;-80
2021/12/11 08:39:28;;;;;;;10.20;9.90;;;2.30;99.90;;;;;;5145006;27;20244;-81
2021/12/11 08:42:05;;;;;;;9.93;9.63;;;2.40;99.90;;;;;;5144302;27;20231;-82
2021/12/11 08:44:50;;;;;;;10.27;9.97;;;2.40;99.90;;;;;;5145035;27;20241;-85
2021/12/11 08:47:21;;;;;;;10.07;9.77;;;2.50;99.90;;;;;;5149544;27;20243;-85
2021/12/11 08:49:51;;;;;;;10.13;9.83;;;2.30;99.90;;;;;;5149790;27;20318;-84
2021/12/11 08:52:29;;;;;;;9.87;9.57;;;2.20;99.90;;;;;;5149961;27;20219;-84
2021/12/11 08:54:58;;;;;;;10.37;10.07;;;2.10;99.90;;;;;;5148737;27;20232;-85
2021/12/11 08:57:38;;;;;;;10.30;10.00;;;2.00;99.90;;;;;;5150649;27;20231;-84
2021/12/11 09:00:23;;;;;;;10.20;9.90;;;2.00;99.90;;;;;;5149535;27;20227;-84
2021/12/11 09:03:02;;;;;;;10.03;9.73;;;2.00;99.90;;;;;;5159204;27;20208;-84
2021/12/11 09:05:40;;;;;;;9.97;9.67;;;2.00;99.90;;;;;;5154070;27;20236;-84
2021/12/11 09:08:18;;;;;;;10.00;9.70;;;2.00;99.90;;;;;;5150823;27;20227;-84
2021/12/11 09:10:58;;;;;;;10.10;9.80;;;2.00;99.90;;;;;;5149701;27;20232;-85
2021/12/11 09:13:35;;;;;;;10.00;9.70;;;2.00;99.90;;;;;;5151527;27;20235;-84
2021/12/11 09:16:13;;;;;;;9.80;9.50;;;2.00;99.90;;;;;;5148579;27;20216;-84
2021/12/11 09:18:51;;;;;;;10.00;9.70;;;2.00;99.90;;;;;;5147954;27;20300;-84
2021/12/11 09:21:29;;;;;;;9.83;9.53;;;2.10;99.90;;;;;;5147568;27;20227;-84
2021/12/11 09:24:08;;;;;;;9.97;9.67;;;2.10;99.90;;;;;;5146752;27;20220;-84
2021/12/11 09:26:46;;;;;;;9.90;9.60;;;2.20;99.90;;;;;;5146165;27;20314;-84
2021/12/11 09:29:24;;;;;;;9.90;9.60;;;2.20;99.90;;;;;;5147243;27;20239;-84
2021/12/11 09:32:12;;;;;;;9.80;9.50;;;2.30;99.90;;;;;;5149438;27;20231;-84
2021/12/11 09:34:50;;;;;;;9.80;9.50;;;2.30;99.90;;;;;;5155545;27;20220;-84
2021/12/11 09:37:19;;;;;;;9.67;9.37;;;2.20;99.90;;;;;;5167708;27;20199;-84
2021/12/11 09:39:51;;;;;;;9.80;9.50;;;2.10;99.90;;;;;;5166284;27;20235;-84
2021/12/11 09:42:18;;;;;;;9.70;9.40;;;2.20;99.90;;;;;;5169325;27;21090;-84
2021/12/11 09:44:56;;;;;;;9.83;9.53;;;2.20;99.90;;;;;;5168217;27;20235;-84
2021/12/11 09:47:35;;;;;;;10.00;9.70;;;2.30;99.90;;;;;;5164238;27;20651;-82
2021/12/11 09:50:12;;;;;;;10.07;9.77;;;2.30;99.90;;;;;;5138731;27;20243;-82
2021/12/11 09:52:45;;;;;;;10.00;9.70;;;2.30;99.90;;;;;;5143816;27;20231;-82
2021/12/11 09:55:20;;;;;;;10.20;9.90;;;2.40;99.90;;;;;;5131690;27;20402;-83
2021/12/11 09:57:58;;;;;;;10.13;9.83;;;2.40;99.90;;;;;;5151789;27;20230;-82
2021/12/11 10:00:37;;;;;;;10.20;9.90;;;2.50;99.90;;;;;;5170898;27;20246;-83
2021/12/11 10:03:06;;;;;;;10.40;10.10;;;2.50;99.90;;;;;;5166727;27;20216;-82
2021/12/11 10:05:43;;;;;;;10.30;10.00;;;2.60;99.90;;;;;;5159111;27;20228;-82
2021/12/11 10:08:36;;;;;;;10.00;9.70;;;2.60;99.90;;;;;;5154420;27;20971;-81
2021/12/11 10:11:11;;;;;;;10.13;9.83;;;2.70;99.90;;;;;;5149041;27;20285;-82
2021/12/11 10:13:49;;;;;;;9.90;9.60;;;2.60;99.90;;;;;;5148459;27;20237;-84
2021/12/11 10:16:25;;;;;;;9.70;9.40;;;2.60;99.90;;;;;;5151577;27;20239;-83
2021/12/11 10:18:56;;;;;;;10.20;9.90;;;2.70;99.90;;;;;;5147015;27;20224;-83
2021/12/11 10:21:35;;;;;;;10.00;9.70;;;2.80;99.90;;;;;;5147013;27;20228;-83
2021/12/11 10:24:14;;;;;;;9.90;9.60;;;2.80;99.90;;;;;;5147768;27;20231;-83
2021/12/11 10:26:42;;;;;;;9.97;9.67;;;2.90;99.90;;;;;;5147753;27;20239;-84
2021/12/11 10:29:14;;;;;;;9.80;9.50;;;2.80;99.90;;;;;;5159041;27;20227;-84
2021/12/11 10:31:50;;;;;;;10.07;9.77;;;2.80;99.90;;;;;;5182386;27;20227;-83
2021/12/11 10:34:29;;;;;;;10.10;9.80;;;2.70;99.90;;;;;;5183890;27;20223;-84
2021/12/11 10:37:08;;;;;;;9.80;9.50;;;2.80;99.90;;;;;;5181140;27;20227;-83
2021/12/11 10:39:37;;;;;;;10.00;9.70;;;2.90;99.90;;;;;;5178182;27;20212;-83
2021/12/11 10:42:06;;;;;;;9.93;9.63;;;2.90;99.90;;;;;;5167530;27;20262;-84
2021/12/11 10:44:37;;;;;;;9.67;9.37;;;3.00;99.90;;;;;;5160582;27;20228;-83
2021/12/11 10:47:14;;;;;;;9.70;9.40;;;3.00;99.90;;;;;;5149588;27;20241;-83
2021/12/11 10:49:44;;;;;;;9.70;9.40;;;3.00;99.90;;;;;;5155565;27;20235;-82
2021/12/11 10:55:08;;;;;;;9.60;9.30;;;3.10;99.90;;;;;;5142494;27;20228;-83
2021/12/11 10:57:37;;;;;;;9.80;9.50;;;3.20;99.90;;;;;;5145012;27;20219;-83
2021/12/11 11:00:16;;;;;;;9.60;9.30;;;3.30;99.90;;;;;;5144508;27;20220;-83
2021/12/11 11:02:54;;;;;;;9.30;9.00;;;3.30;99.90;;;;;;5145944;27;20224;-83
2021/12/11 11:05:25;;;;;;;9.50;9.20;;;3.30;99.90;;;;;;5145274;27;20235;-83
2021/12/11 11:07:53;;;;;;;9.50;9.20;;;3.30;99.90;;;;;;5144892;27;20297;-83
2021/12/11 11:10:31;;;;;;;9.50;9.20;;;3.40;99.90;;;;;;5146430;27;20286;-84
2021/12/11 11:13:01;;;;;;;9.63;9.33;;;3.40;99.90;;;;;;5146708;27;20223;-83
2021/12/11 11:15:31;;;;;;;9.60;9.30;;;3.40;99.90;;;;;;5143118;27;20228;-83
2021/12/11 11:18:08;;;;;;;9.40;9.10;;;3.30;99.90;;;;;;5144022;27;20270;-82
2021/12/11 11:23:25;;;;;;;9.43;9.13;;;3.30;99.90;;;;;;5143652;27;20338;-81
2021/12/11 11:26:04;;;;;;;9.50;9.20;;;3.40;99.90;;;;;;5149299;27;20239;-83
2021/12/11 11:28:33;;;;;;;9.27;8.97;;;3.50;99.90;;;;;;5171905;22;21533;-79
2021/12/11 11:31:04;;;;;;;9.40;9.10;;;3.50;99.90;;;;;;5138846;27;20232;-79
2021/12/11 11:33:34;;;;;;;9.93;9.63;;;3.30;99.90;;;;;;5139766;27;20216;-79
2021/12/11 11:36:05;;;;;;;9.57;9.27;;;3.20;99.90;;;;;;5142721;27;20224;-80
2021/12/11 11:38:36;;;;;;;9.37;9.07;;;3.20;99.90;;;;;;5139134;27;20228;-80
2021/12/11 11:41:11;;;;;;;9.50;9.20;;;3.10;99.90;;;;;;5141340;27;20224;-79
2021/12/11 11:43:41;;;;;;;9.33;9.03;;;3.10;99.90;;;;;;5140675;27;20228;-79
2021/12/11 11:46:09;;;;;;;9.40;9.10;;;3.20;99.90;;;;;;5141001;27;20258;-80
2021/12/11 11:48:42;;;;;;;9.30;9.00;;;3.20;99.90;;;;;;5142110;27;20232;-79
2021/12/11 11:51:14;;;;;;;9.50;9.20;;;3.20;99.90;;;;;;5143527;27;20277;-81
2021/12/11 11:53:42;;;;;;;9.50;9.20;;;3.10;99.90;;;;;;5142992;27;20239;-79
2021/12/11 11:56:14;;;;;;;9.43;9.13;;;3.10;99.90;;;;;;5141594;27;20243;-79
2021/12/11 11:58:42;;;;;;;9.67;9.37;;;3.20;99.90;;;;;;5142209;27;20270;-80
2021/12/11 12:01:13;;;;;;;9.30;9.00;;;3.20;99.90;;;;;;5140667;27;20224;-78
2021/12/11 12:03:43;;;;;;;9.20;8.90;;;3.10;99.90;;;;;;5141621;27;20216;-79
2021/12/11 12:06:21;;;;;;;9.13;8.83;;;3.10;99.90;;;;;;5156500;27;20215;-79
2021/12/11 12:08:49;;;;;;;9.30;9.00;;;3.10;99.90;;;;;;5155705;27;20254;-80
2021/12/11 12:11:17;;;;;;;9.13;8.83;;;3.10;99.90;;;;;;5155431;27;20228;-78
2021/12/11 12:13:46;;;;;;;9.30;9.00;;;3.20;99.90;;;;;;5161491;27;20216;-78
2021/12/11 12:16:15;;;;;;;9.17;8.87;;;3.20;99.90;;;;;;5144782;27;20250;-80
2021/12/11 12:18:46;;;;;;;8.90;8.67;;;3.30;99.90;;;;;;5143358;27;20240;-81
2021/12/11 12:21:17;;;;;;;9.23;8.93;;;3.20;99.90;;;;;;5144369;27;20231;-81
2021/12/11 12:23:47;;;;;;;9.30;9.00;;;3.20;99.90;;;;;;5147962;27;20228;-80
2021/12/11 12:26:22;;;;;;;8.90;8.67;;;3.10;99.90;;;;;;5146223;27;20232;-80
2021/12/11 12:28:51;;;;;;;9.50;9.20;;;3.00;99.90;;;;;;5143540;27;20242;-80
2021/12/11 12:31:25;;;;;;;9.27;8.97;;;3.10;99.90;;;;;;5145273;27;20208;-79
2021/12/11 12:33:54;;;;;;;9.30;9.00;;;3.20;99.90;;;;;;5147662;27;20220;-80
2021/12/11 12:36:23;;;;;;;9.00;8.70;;;3.30;99.90;;;;;;5146766;27;20252;-80
2021/12/11 12:38:52;;;;;;;9.13;8.83;;;3.20;99.90;;;;;;5144664;27;20239;-80
2021/12/11 12:41:28;;;;;;;9.23;8.93;;;3.10;99.90;;;;;;5144325;27;20365;-80
2021/12/11 12:44:17;;;;;;;9.10;8.80;;;3.10;99.90;;;;;;5144131;27;20227;-80
2021/12/11 12:46:56;;;;;;;8.80;8.60;;;3.10;99.90;;;;;;5145164;27;20262;-80
2021/12/11 12:49:29;;;;;;;8.90;8.70;;;3.20;99.90;;;;;;5146268;27;20228;-80
2021/12/11 12:52:08;;;;;;;8.83;8.63;;;3.20;99.90;;;;;;5146157;27;20245;-81
2021/12/11 12:54:36;;;;;;;8.50;8.30;;;3.20;99.90;;;;;;5141107;27;20228;-80
2021/12/11 12:57:13;;;;;;;8.80;8.60;;;3.20;99.90;;;;;;5142057;27;20232;-80
2021/12/11 12:59:47;;;;;;;9.07;8.77;;;3.10;99.90;;;;;;5140570;27;20234;-81
2021/12/11 13:02:19;;;;;;;8.80;8.60;;;3.10;99.90;;;;;;5140994;27;20224;-80
2021/12/11 13:04:56;;;;;;;9.00;8.70;;;3.10;99.90;;;;;;5142362;27;20216;-80
2021/12/11 13:07:24;;;;;;;9.20;8.90;;;3.00;99.90;;;;;;5144742;27;20224;-81
2021/12/11 13:09:55;;;;;;;9.20;8.90;;;3.10;99.90;;;;;;5146473;27;20254;-81
2021/12/11 13:12:28;;;;;;;9.13;8.83;;;3.20;99.90;;;;;;5143065;27;20269;-81
2021/12/11 13:15:00;;;;;;;8.60;8.40;;;3.30;99.90;;;;;;5141988;27;20232;-80
2021/12/11 13:17:33;;;;;;;9.03;8.73;;;3.30;99.90;;;;;;5142087;27;20231;-80
2021/12/11 13:20:09;;;;;;;9.00;8.70;;;3.30;99.90;;;;;;5143263;27;20249;-80
2021/12/11 13:22:42;;;;;;;9.00;8.70;;;3.30;99.90;;;;;;5139920;27;20212;-80
2021/12/11 13:25:14;;;;;;;8.60;8.40;;;3.20;99.90;;;;;;5139467;27;20285;-80
2021/12/11 13:27:47;;;;;;;8.80;8.60;;;3.20;99.90;;;;;;5139807;27;20231;-80
2021/12/11 13:30:23;;;;;;;8.60;8.40;;;3.30;99.90;;;;;;5139497;27;20305;-82
2021/12/11 13:32:51;;;;;;;9.00;8.70;;;3.30;99.90;;;;;;5140455;27;20232;-81